Time;durP1;ratioP1;P1;durP2;ratioP2;P2;SDS_P1;SDS_P2;PMS_P1;PMS_P2;Temp;Humidity;BMP_temperature;BMP_pressure;BME280_temperature;BME280_humidity;BME280_pressure;Samples;Min_cycle;Max_cycle;Signal;HPM_P1;HPM_P2
2023/12/24 00:00:32;;;;;;;4.13;1.50;;;;;;;;;;5057083;28;20417;-74
2023/12/24 00:02:59;;;;;;;3.80;1.23;;;;;;;;;;5056558;28;20536;-75
2023/12/24 00:05:27;;;;;;;3.13;1.10;;;;;;;;;;5056698;28;20424;-71
2023/12/24 00:07:53;;;;;;;4.70;1.10;;;;;;;;;;5054926;28;20421;-74
2023/12/24 00:10:20;;;;;;;3.27;0.90;;;;;;;;;;5057043;28;20425;-74
2023/12/24 00:12:47;;;;;;;1.77;0.97;;;;;;;;;;5055025;28;20926;-74
2023/12/24 00:15:16;;;;;;;3.50;1.10;;;;;;;;;;5056024;28;20428;-74
2023/12/24 00:17:43;;;;;;;3.27;1.10;;;;;;;;;;5056337;28;20434;-74
2023/12/24 00:20:10;;;;;;;2.80;1.07;;;;;;;;;;5056449;28;20479;-74
2023/12/24 00:22:37;;;;;;;2.17;0.97;;;;;;;;;;5055508;28;21059;-74
2023/12/24 00:25:04;;;;;;;3.23;0.97;;;;;;;;;;5021897;28;20461;-74
2023/12/24 00:27:49;;;;;;;4.57;1.40;;;;;;;;;;5055847;28;20379;-74
2023/12/24 00:30:15;;;;;;;2.30;0.97;;;;;;;;;;5056744;28;20413;-74
2023/12/24 00:32:59;;;;;;;6.47;2.00;;;;;;;;;;5056156;28;20844;-74
2023/12/24 00:35:26;;;;;;;5.80;2.30;;;;;;;;;;5036807;28;20433;-74
2023/12/24 00:38:10;;;;;;;5.43;1.83;;;;;;;;;;5054913;28;20389;-74
2023/12/24 00:40:38;;;;;;;4.47;1.43;;;;;;;;;;5021613;28;20440;-74
2023/12/24 00:43:22;;;;;;;5.43;1.47;;;;;;;;;;5055790;28;20374;-73
2023/12/24 00:45:48;;;;;;;3.50;1.20;;;;;;;;;;5038040;28;20931;-74
2023/12/24 00:48:32;;;;;;;3.37;1.20;;;;;;;;;;5063128;28;20492;-74
2023/12/24 00:50:59;;;;;;;3.70;1.20;;;;;;;;;;5056372;28;21006;-74
2023/12/24 00:53:44;;;;;;;3.17;1.03;;;;;;;;;;5071243;28;20905;-74
2023/12/24 00:56:12;;;;;;;2.97;1.10;;;;;;;;;;5054679;28;20432;-71
2023/12/24 00:58:38;;;;;;;2.53;1.07;;;;;;;;;;5054172;28;20848;-74
2023/12/24 01:01:05;;;;;;;3.30;0.80;;;;;;;;;;5055065;28;20429;-73
2023/12/24 01:03:32;;;;;;;2.10;0.80;;;;;;;;;;5055441;28;20842;-72
2023/12/24 01:05:59;;;;;;;4.37;1.00;;;;;;;;;;5071070;28;20824;-72
2023/12/24 01:08:26;;;;;;;4.13;0.73;;;;;;;;;;5053977;28;20437;-72
2023/12/24 01:10:52;;;;;;;1.20;0.70;;;;;;;;;;5070550;28;20484;-72
2023/12/24 01:48:33;;;;;;;3.17;1.57;;;;;;;;;;5055271;28;20472;-72
2023/12/24 01:51:00;;;;;;;3.53;1.10;;;;;;;;;;5053008;28;20552;-72
2023/12/24 01:53:27;;;;;;;2.37;0.87;;;;;;;;;;5036426;28;20904;-72
2023/12/24 01:55:53;;;;;;;3.23;1.13;;;;;;;;;;5036573;28;20540;-72
2023/12/24 01:58:38;;;;;;;4.30;1.00;;;;;;;;;;5053216;28;20901;-73
2023/12/24 02:01:04;;;;;;;4.73;1.30;;;;;;;;;;5053730;28;20421;-73
2023/12/24 02:03:31;;;;;;;1.80;1.00;;;;;;;;;;5052881;28;20776;-72
2023/12/24 02:05:58;;;;;;;3.13;1.20;;;;;;;;;;5053130;28;20781;-72
2023/12/24 02:08:24;;;;;;;2.27;0.80;;;;;;;;;;5036621;28;20461;-72
2023/12/24 02:10:51;;;;;;;3.17;0.97;;;;;;;;;;5069263;28;20460;-74
2023/12/24 02:13:18;;;;;;;2.47;1.07;;;;;;;;;;5052779;28;20421;-73
2023/12/24 02:15:44;;;;;;;4.03;1.00;;;;;;;;;;5053226;28;20425;-72
2023/12/24 02:18:29;;;;;;;3.43;0.83;;;;;;;;;;5053248;28;20382;-74
2023/12/24 02:21:02;;;;;;;3.93;1.10;;;;;;;;;;5052714;28;20461;-73
2023/12/24 02:23:46;;;;;;;3.67;1.30;;;;;;;;;;5053090;28;20896;-72
2023/12/24 02:26:16;;;;;;;2.27;0.97;;;;;;;;;;5035841;28;20526;-72
2023/12/24 02:28:42;;;;;;;3.13;0.80;;;;;;;;;;5052690;28;20452;-72
2023/12/24 02:31:10;;;;;;;3.43;0.80;;;;;;;;;;5035463;28;20567;-72
2023/12/24 02:33:38;;;;;;;1.77;0.43;;;;;;;;;;5053301;28;20835;-72
2023/12/24 02:36:22;;;;;;;3.27;0.70;;;;;;;;;;5052524;28;20416;-72
2023/12/24 02:38:50;;;;;;;3.43;0.90;;;;;;;;;;5036369;28;20483;-72
2023/12/24 02:41:17;;;;;;;1.47;0.63;;;;;;;;;;5053868;28;20417;-73
2023/12/24 02:43:44;;;;;;;1.83;0.77;;;;;;;;;;5052349;28;20761;-72
2023/12/24 02:46:11;;;;;;;2.87;0.90;;;;;;;;;;5019409;28;20528;-71
2023/12/24 02:48:37;;;;;;;3.87;0.80;;;;;;;;;;5064011;28;20456;-72
2023/12/24 02:51:04;;;;;;;1.30;0.70;;;;;;;;;;5052003;28;20456;-71
2023/12/24 02:53:31;;;;;;;3.87;1.07;;;;;;;;;;5052665;28;20437;-72
2023/12/24 02:55:57;;;;;;;3.97;0.93;;;;;;;;;;5052208;28;20441;-71
2023/12/24 02:58:24;;;;;;;3.10;0.87;;;;;;;;;;5070705;28;20516;-72
2023/12/24 03:00:50;;;;;;;2.17;0.60;;;;;;;;;;5073044;28;20480;-74
2023/12/24 03:03:35;;;;;;;2.40;0.90;;;;;;;;;;5044531;28;20451;-74
2023/12/24 03:06:01;;;;;;;2.07;0.80;;;;;;;;;;5057443;28;20416;-74
2023/12/24 03:08:28;;;;;;;3.10;0.60;;;;;;;;;;5040053;28;20970;-74
2023/12/24 03:10:55;;;;;;;3.33;0.80;;;;;;;;;;5057571;28;20409;-74
2023/12/24 03:13:21;;;;;;;2.97;0.80;;;;;;;;;;5072690;28;20429;-71
2023/12/24 03:16:05;;;;;;;2.13;0.80;;;;;;;;;;5057367;28;20390;-73
2023/12/24 03:18:32;;;;;;;3.27;1.07;;;;;;;;;;5057283;28;20414;-74
2023/12/24 03:21:16;;;;;;;1.50;0.90;;;;;;;;;;5072767;28;20780;-74
2023/12/24 03:23:42;;;;;;;4.10;0.93;;;;;;;;;;5057191;28;20848;-74
2023/12/24 03:26:22;;;;;;;3.83;1.20;;;;;;;;;;5072227;28;20421;-72
2023/12/24 03:28:48;;;;;;;5.80;1.70;;;;;;;;;;5039260;28;20429;-72
2023/12/24 03:31:15;;;;;;;3.13;1.00;;;;;;;;;;5056997;28;20451;-72
2023/12/24 03:33:43;;;;;;;3.00;1.23;;;;;;;;;;5056204;28;20433;-72
2023/12/24 03:36:10;;;;;;;2.43;1.03;;;;;;;;;;5056995;28;20531;-74
2023/12/24 03:38:54;;;;;;;3.33;1.00;;;;;;;;;;5056919;28;20425;-72
2023/12/24 03:41:21;;;;;;;5.20;1.40;;;;;;;;;;5056081;28;20435;-72
2023/12/24 03:43:48;;;;;;;5.23;1.67;;;;;;;;;;5056874;28;20417;-72
2023/12/24 03:46:20;;;;;;;2.47;0.93;;;;;;;;;;5057109;28;20425;-72
2023/12/24 03:48:47;;;;;;;4.20;1.07;;;;;;;;;;5055480;28;20527;-72
2023/12/24 03:51:31;;;;;;;3.37;1.30;;;;;;;;;;5055655;28;20436;-72
2023/12/24 03:53:58;;;;;;;5.13;1.47;;;;;;;;;;5055327;28;20529;-72
2023/12/24 03:56:25;;;;;;;3.07;1.20;;;;;;;;;;5056761;28;20753;-71
2023/12/24 03:58:51;;;;;;;2.53;1.20;;;;;;;;;;5057130;28;20849;-72
2023/12/24 04:01:23;;;;;;;3.50;1.33;;;;;;;;;;5055306;28;20433;-72
2023/12/24 04:03:50;;;;;;;5.43;1.60;;;;;;;;;;5038289;28;20425;-72
2023/12/24 04:06:17;;;;;;;2.97;1.57;;;;;;;;;;5055129;28;20491;-72
2023/12/24 04:08:44;;;;;;;3.50;1.53;;;;;;;;;;5074835;28;20822;-72
2023/12/24 04:11:11;;;;;;;4.60;1.70;;;;;;;;;;5058994;28;20455;-72
2023/12/24 04:13:38;;;;;;;5.50;2.10;;;;;;;;;;5075814;28;20837;-72
2023/12/24 04:16:05;;;;;;;5.13;1.73;;;;;;;;;;5074837;28;20466;-71
2023/12/24 04:18:50;;;;;;;4.17;0.90;;;;;;;;;;5075411;28;20440;-72
2023/12/24 04:21:17;;;;;;;5.70;1.83;;;;;;;;;;5083277;28;20507;-72
2023/12/24 04:24:01;;;;;;;3.47;1.40;;;;;;;;;;5096363;28;20390;-72
2023/12/24 04:26:29;;;;;;;4.67;1.50;;;;;;;;;;5078121;28;20767;-72
2023/12/24 04:28:55;;;;;;;3.83;1.27;;;;;;;;;;5078100;28;20821;-72
2023/12/24 04:31:22;;;;;;;6.33;1.90;;;;;;;;;;5061664;28;20444;-73
2023/12/24 04:33:50;;;;;;;3.10;1.67;;;;;;;;;;5078053;28;20443;-72
2023/12/24 04:36:19;;;;;;;3.27;1.40;;;;;;;;;;5078204;28;20863;-72
2023/12/24 04:38:46;;;;;;;4.90;1.77;;;;;;;;;;5095573;28;20463;-73
2023/12/24 04:41:16;;;;;;;3.67;1.27;;;;;;;;;;5078560;28;20519;-72
2023/12/24 04:44:00;;;;;;;7.00;1.57;;;;;;;;;;5094954;28;20461;-72
2023/12/24 04:46:27;;;;;;;5.10;1.23;;;;;;;;;;5077681;28;20435;-72
2023/12/24 04:49:11;;;;;;;6.03;1.70;;;;;;;;;;5080494;28;20439;-72
2023/12/24 04:51:38;;;;;;;5.63;2.07;;;;;;;;;;5077512;28;20950;-72
2023/12/24 04:54:05;;;;;;;4.23;1.50;;;;;;;;;;5077575;28;20451;-72
2023/12/24 04:56:32;;;;;;;6.37;2.37;;;;;;;;;;5077548;28;20431;-72
2023/12/24 04:58:59;;;;;;;8.40;2.13;;;;;;;;;;5077661;28;20431;-72
2023/12/24 05:01:27;;;;;;;3.83;1.80;;;;;;;;;;5044848;28;20899;-71
2023/12/24 05:03:54;;;;;;;7.13;1.37;;;;;;;;;;5095816;28;20428;-72
2023/12/24 05:06:21;;;;;;;5.93;1.47;;;;;;;;;;5061026;28;20423;-72
2023/12/24 05:09:08;;;;;;;5.63;1.50;;;;;;;;;;5094265;28;20433;-72
2023/12/24 05:11:35;;;;;;;5.93;2.00;;;;;;;;;;5095927;28;20451;-72
2023/12/24 05:14:01;;;;;;;4.77;1.47;;;;;;;;;;5060985;28;20438;-72
2023/12/24 05:16:28;;;;;;;5.57;1.90;;;;;;;;;;5077156;28;20896;-72
2023/12/24 05:18:55;;;;;;;5.90;1.57;;;;;;;;;;5096056;28;20431;-72
2023/12/24 05:21:22;;;;;;;4.10;1.50;;;;;;;;;;5076396;28;20926;-72
2023/12/24 05:23:48;;;;;;;3.87;1.40;;;;;;;;;;5076983;28;20930;-71
2023/12/24 05:26:15;;;;;;;6.07;1.43;;;;;;;;;;5076929;28;20547;-72
2023/12/24 05:28:42;;;;;;;4.53;1.30;;;;;;;;;;5077162;28;20424;-71
2023/12/24 05:31:08;;;;;;;5.57;1.40;;;;;;;;;;5077683;28;20437;-72
2023/12/24 05:33:35;;;;;;;3.63;1.23;;;;;;;;;;5094692;28;20475;-72
2023/12/24 05:36:02;;;;;;;3.57;1.30;;;;;;;;;;5094680;28;20407;-72
2023/12/24 05:38:29;;;;;;;3.90;1.07;;;;;;;;;;5095122;28;20423;-72
2023/12/24 05:40:56;;;;;;;5.97;1.70;;;;;;;;;;5077160;28;20418;-72
2023/12/24 05:43:22;;;;;;;5.50;1.37;;;;;;;;;;5076623;28;20438;-72
2023/12/24 05:45:49;;;;;;;8.93;1.87;;;;;;;;;;5094987;28;20882;-72
2023/12/24 05:48:15;;;;;;;5.47;1.00;;;;;;;;;;5076784;28;20542;-72
2023/12/24 05:50:42;;;;;;;7.23;1.63;;;;;;;;;;5095178;28;20407;-72
2023/12/24 05:53:09;;;;;;;4.20;1.47;;;;;;;;;;5094323;28;20512;-71
2023/12/24 05:55:35;;;;;;;7.70;1.80;;;;;;;;;;5094823;28;20415;-72
2023/12/24 05:58:02;;;;;;;5.70;1.50;;;;;;;;;;5076310;28;20431;-71
2023/12/24 06:00:29;;;;;;;3.43;1.40;;;;;;;;;;5076282;28;20418;-72
2023/12/24 06:02:55;;;;;;;3.63;1.70;;;;;;;;;;5077307;28;20467;-72
2023/12/24 06:05:22;;;;;;;3.23;0.80;;;;;;;;;;5076357;28;20912;-72
2023/12/24 06:07:49;;;;;;;4.30;1.37;;;;;;;;;;5094683;28;20420;-72
2023/12/24 06:10:16;;;;;;;5.03;1.40;;;;;;;;;;5094699;28;20422;-72
2023/12/24 06:12:48;;;;;;;8.57;1.30;;;;;;;;;;5094588;28;20859;-71
2023/12/24 06:15:15;;;;;;;2.23;1.00;;;;;;;;;;5094871;28;20407;-72
2023/12/24 06:17:42;;;;;;;2.37;1.10;;;;;;;;;;5043321;28;20984;-71
2023/12/24 06:20:26;;;;;;;3.47;1.10;;;;;;;;;;5078975;28;20399;-72
2023/12/24 06:22:52;;;;;;;4.63;0.80;;;;;;;;;;5075971;28;20419;-72
2023/12/24 06:25:20;;;;;;;2.03;1.10;;;;;;;;;;5094428;28;20432;-72
2023/12/24 06:27:47;;;;;;;2.80;1.17;;;;;;;;;;5075981;28;20906;-72
2023/12/24 06:30:14;;;;;;;4.30;1.50;;;;;;;;;;5093592;28;20477;-72
2023/12/24 06:32:45;;;;;;;5.00;1.77;;;;;;;;;;5058406;28;20463;-72
2023/12/24 06:35:12;;;;;;;6.63;1.70;;;;;;;;;;5076467;28;20395;-72
2023/12/24 06:37:38;;;;;;;4.80;1.43;;;;;;;;;;5059589;28;20431;-72
2023/12/24 06:40:23;;;;;;;3.50;1.40;;;;;;;;;;5078840;28;20427;-72
2023/12/24 06:42:49;;;;;;;5.57;1.50;;;;;;;;;;5076198;28;20438;-72
2023/12/24 06:45:33;;;;;;;4.73;1.20;;;;;;;;;;5078570;28;20391;-72
2023/12/24 06:48:02;;;;;;;6.47;1.67;;;;;;;;;;5075694;28;20987;-72
2023/12/24 06:50:47;;;;;;;4.97;1.43;;;;;;;;;;5078916;28;20421;-72
2023/12/24 06:53:17;;;;;;;3.80;1.20;;;;;;;;;;5076154;28;20505;-72
2023/12/24 06:56:01;;;;;;;5.90;1.67;;;;;;;;;;5093549;28;20395;-72
2023/12/24 06:58:28;;;;;;;3.10;1.60;;;;;;;;;;5075753;28;20429;-71
2023/12/24 07:00:55;;;;;;;8.10;2.00;;;;;;;;;;5075611;28;20754;-72
2023/12/24 07:03:21;;;;;;;6.97;2.33;;;;;;;;;;5094276;28;20933;-72
2023/12/24 07:05:48;;;;;;;5.00;1.80;;;;;;;;;;5075849;28;20787;-71
2023/12/24 07:08:15;;;;;;;6.43;1.90;;;;;;;;;;5075810;28;20414;-71
2023/12/24 07:10:42;;;;;;;7.87;2.10;;;;;;;;;;5075176;28;20427;-73
2023/12/24 07:13:10;;;;;;;5.67;2.13;;;;;;;;;;5093507;28;20798;-73
2023/12/24 07:15:39;;;;;;;7.23;2.47;;;;;;;;;;5093687;28;20432;-72
2023/12/24 07:18:07;;;;;;;7.33;2.83;;;;;;;;;;5076303;28;20758;-72
2023/12/24 07:20:34;;;;;;;7.00;2.80;;;;;;;;;;5093785;28;20439;-71
2023/12/24 07:23:01;;;;;;;7.07;2.43;;;;;;;;;;5093546;28;20447;-70
2023/12/24 07:25:28;;;;;;;8.70;2.87;;;;;;;;;;5093704;28;20434;-73
2023/12/24 07:27:55;;;;;;;7.13;2.97;;;;;;;;;;5093373;28;20488;-73
2023/12/24 07:30:22;;;;;;;6.47;3.33;;;;;;;;;;5093837;28;20420;-72
2023/12/24 07:32:49;;;;;;;11.63;3.90;;;;;;;;;;5093164;28;20814;-73
2023/12/24 07:39:16;;;;;;;10.77;4.23;;;;;;;;;;5093436;28;20782;-72
2023/12/24 07:41:43;;;;;;;14.87;4.60;;;;;;;;;;5076096;28;20419;-73
2023/12/24 07:44:11;;;;;;;12.23;5.10;;;;;;;;;;5094672;28;20556;-71
2023/12/24 07:46:42;;;;;;;8.80;4.43;;;;;;;;;;5063999;28;20416;-72
2023/12/24 07:49:09;;;;;;;6.97;3.90;;;;;;;;;;5096889;28;20486;-72
2023/12/24 07:51:53;;;;;;;8.17;4.00;;;;;;;;;;5095968;28;20403;-72
2023/12/24 07:54:20;;;;;;;9.07;3.20;;;;;;;;;;5096784;28;20427;-72
2023/12/24 07:56:47;;;;;;;11.77;3.43;;;;;;;;;;5079365;28;20427;-72
2023/12/24 07:59:13;;;;;;;8.87;3.73;;;;;;;;;;5078917;28;20530;-72
2023/12/24 08:05:39;;;;;;;7.17;3.17;;;;;;;;;;5097612;28;20527;-72
2023/12/24 08:08:06;;;;;;;13.53;4.37;;;;;;;;;;5079288;28;20846;-70
2023/12/24 08:10:33;;;;;;;8.67;3.67;;;;;;;;;;5096915;28;20447;-72
2023/12/24 08:13:00;;;;;;;11.07;4.60;;;;;;;;;;5079236;28;20455;-72
2023/12/24 08:15:39;;;;;;;11.67;4.43;;;;;;;;;;5096731;28;20400;-72
2023/12/24 08:18:06;;;;;;;10.20;4.20;;;;;;;;;;5062008;28;20411;-71
2023/12/24 08:20:33;;;;;;;11.10;4.07;;;;;;;;;;5078724;28;20447;-72
2023/12/24 08:23:00;;;;;;;11.43;3.90;;;;;;;;;;5096300;28;20514;-72
2023/12/24 08:25:27;;;;;;;11.10;4.73;;;;;;;;;;5078625;28;20423;-72
2023/12/24 08:27:54;;;;;;;8.93;4.23;;;;;;;;;;5096538;28;20755;-74
2023/12/24 08:30:21;;;;;;;9.93;4.47;;;;;;;;;;5077937;28;20484;-71
2023/12/24 08:32:48;;;;;;;12.27;4.67;;;;;;;;;;5095987;28;20459;-71
2023/12/24 08:35:18;;;;;;;11.43;4.40;;;;;;;;;;5096363;28;20936;-73
2023/12/24 08:37:45;;;;;;;9.87;4.90;;;;;;;;;;5095888;28;20424;-72
2023/12/24 08:40:12;;;;;;;10.87;5.17;;;;;;;;;;5078036;28;20422;-72
2023/12/24 08:42:39;;;;;;;12.70;4.83;;;;;;;;;;5095728;28;20424;-70
2023/12/24 08:45:06;;;;;;;9.83;4.30;;;;;;;;;;5078056;28;20423;-73
2023/12/24 08:47:50;;;;;;;12.10;4.70;;;;;;;;;;5096061;28;20534;-73
2023/12/24 08:50:17;;;;;;;12.33;4.53;;;;;;;;;;5095880;28;20518;-72
2023/12/24 08:52:44;;;;;;;8.83;4.60;;;;;;;;;;5061551;28;20465;-73
2023/12/24 08:55:12;;;;;;;10.13;4.53;;;;;;;;;;5077668;28;20422;-73
2023/12/24 08:57:42;;;;;;;12.03;4.27;;;;;;;;;;5095808;28;20419;-73
2023/12/24 09:00:27;;;;;;;18.43;6.47;;;;;;;;;;5080300;28;20395;-73
2023/12/24 09:02:55;;;;;;;14.97;5.87;;;;;;;;;;5078197;28;20739;-73
2023/12/24 09:05:22;;;;;;;8.87;4.77;;;;;;;;;;5077354;28;20435;-73
2023/12/24 09:07:49;;;;;;;13.67;5.80;;;;;;;;;;5078093;28;20411;-73
2023/12/24 09:10:17;;;;;;;12.00;5.40;;;;;;;;;;5077545;28;20771;-74
2023/12/24 09:12:44;;;;;;;15.20;5.87;;;;;;;;;;5095106;28;21009;-73
2023/12/24 09:15:11;;;;;;;12.53;6.20;;;;;;;;;;5077456;28;20447;-73
2023/12/24 09:17:37;;;;;;;16.10;7.43;;;;;;;;;;5095317;28;20428;-73
2023/12/24 09:20:05;;;;;;;14.27;7.53;;;;;;;;;;5060647;28;20479;-74
2023/12/24 09:22:35;;;;;;;16.20;7.47;;;;;;;;;;5095171;28;20451;-74
2023/12/24 09:25:04;;;;;;;15.37;8.73;;;;;;;;;;5095039;28;20495;-74
2023/12/24 09:27:48;;;;;;;23.80;10.03;;;;;;;;;;5079788;28;20388;-73
2023/12/24 09:30:15;;;;;;;25.10;9.77;;;;;;;;;;5077364;28;20418;-72
2023/12/24 09:32:43;;;;;;;18.33;8.60;;;;;;;;;;5077198;28;20486;-72
2023/12/24 09:35:10;;;;;;;18.90;8.70;;;;;;;;;;5077418;28;20413;-72
2023/12/24 09:37:37;;;;;;;19.00;8.60;;;;;;;;;;5060200;28;20438;-72
2023/12/24 09:40:06;;;;;;;14.67;8.20;;;;;;;;;;5095575;28;20542;-72
2023/12/24 09:42:35;;;;;;;12.67;7.00;;;;;;;;;;5095417;28;20403;-73
2023/12/24 09:45:02;;;;;;;13.77;6.90;;;;;;;;;;5076789;28;20944;-73
2023/12/24 09:47:29;;;;;;;12.83;6.73;;;;;;;;;;5092949;28;20447;-74
2023/12/24 09:50:00;;;;;;;13.43;5.87;;;;;;;;;;5094541;28;20427;-73
2023/12/24 09:52:28;;;;;;;6.57;3.90;;;;;;;;;;5077332;28;20408;-73
2023/12/24 09:55:12;;;;;;;8.87;4.70;;;;;;;;;;5094628;28;20407;-73
2023/12/24 09:57:40;;;;;;;11.13;5.10;;;;;;;;;;5076714;28;20419;-73
2023/12/24 10:00:24;;;;;;;9.93;5.00;;;;;;;;;;5094468;28;20400;-70
2023/12/24 10:02:52;;;;;;;11.80;5.37;;;;;;;;;;5076343;28;20478;-69
2023/12/24 10:05:20;;;;;;;10.27;4.90;;;;;;;;;;5076534;28;20443;-70
2023/12/24 10:07:47;;;;;;;9.23;5.37;;;;;;;;;;5076408;28;20438;-69
2023/12/24 10:10:14;;;;;;;12.40;5.67;;;;;;;;;;5076511;28;20431;-69
2023/12/24 10:12:42;;;;;;;11.83;5.93;;;;;;;;;;5076335;28;20516;-69
2023/12/24 10:15:09;;;;;;;11.20;6.20;;;;;;;;;;5094324;28;20783;-69
2023/12/24 10:17:36;;;;;;;31.03;13.00;;;;;;;;;;5094260;28;20456;-69
2023/12/24 10:20:03;;;;;;;14.50;6.27;;;;;;;;;;5076452;28;20438;-69
2023/12/24 10:22:30;;;;;;;16.73;7.87;;;;;;;;;;5094210;28;20435;-69
2023/12/24 10:25:05;;;;;;;12.87;5.63;;;;;;;;;;5094354;28;20426;-68
2023/12/24 10:27:32;;;;;;;13.57;5.87;;;;;;;;;;5060077;28;20882;-69
2023/12/24 10:30:08;;;;;;;11.07;5.77;;;;;;;;;;5094396;28;20473;-69
2023/12/24 10:32:35;;;;;;;18.17;8.80;;;;;;;;;;5094390;28;20403;-69
2023/12/24 10:35:03;;;;;;;20.30;9.83;;;;;;;;;;5059778;28;20420;-69
2023/12/24 10:37:29;;;;;;;16.87;8.70;;;;;;;;;;5076374;28;20427;-69
2023/12/24 10:40:09;;;;;;;14.40;8.13;;;;;;;;;;5076174;28;20762;-69
2023/12/24 10:42:37;;;;;;;29.90;14.60;;;;;;;;;;5093957;28;20419;-69
2023/12/24 10:45:05;;;;;;;19.37;9.50;;;;;;;;;;5093945;28;20898;-69
2023/12/24 10:47:31;;;;;;;22.70;10.53;;;;;;;;;;5059223;28;20802;-69
2023/12/24 10:49:59;;;;;;;24.30;11.50;;;;;;;;;;5076175;28;20870;-69
2023/12/24 10:52:27;;;;;;;15.73;7.83;;;;;;;;;;5076261;28;20506;-69
2023/12/24 10:54:54;;;;;;;16.63;7.00;;;;;;;;;;5093783;28;20498;-69
2023/12/24 10:57:34;;;;;;;16.53;8.27;;;;;;;;;;5094450;28;20436;-70
2023/12/24 11:00:14;;;;;;;15.73;6.73;;;;;;;;;;5076807;28;20396;-69
2023/12/24 11:02:45;;;;;;;19.20;9.97;;;;;;;;;;5076374;28;20749;-69
2023/12/24 11:05:12;;;;;;;20.37;9.70;;;;;;;;;;5076177;28;20423;-69
2023/12/24 11:07:42;;;;;;;15.93;6.53;;;;;;;;;;5075798;28;20426;-69
2023/12/24 11:10:09;;;;;;;17.73;8.33;;;;;;;;;;5094183;28;20762;-69
2023/12/24 11:12:36;;;;;;;18.27;8.47;;;;;;;;;;5059408;28;20427;-69
2023/12/24 11:15:04;;;;;;;13.67;6.97;;;;;;;;;;5094073;28;20443;-69
2023/12/24 11:17:34;;;;;;;15.77;7.40;;;;;;;;;;5076349;28;20879;-69
2023/12/24 11:20:16;;;;;;;16.40;8.13;;;;;;;;;;5097051;28;20423;-69
2023/12/24 11:23:02;;;;;;;15.57;7.67;;;;;;;;;;5098031;28;20442;-68
2023/12/24 11:25:45;;;;;;;13.20;7.10;;;;;;;;;;5096485;28;20418;-68
2023/12/24 11:28:32;;;;;;;8.07;3.20;;;;;;;;;;5098149;28;20427;-68
2023/12/24 11:30:59;;;;;;;8.47;3.87;;;;;;;;;;5087149;28;20427;-69
2023/12/24 11:33:41;;;;;;;15.00;7.50;;;;;;;;;;5096779;28;20450;-69
2023/12/24 11:36:09;;;;;;;10.63;4.77;;;;;;;;;;5097948;28;20407;-68
2023/12/24 11:38:36;;;;;;;8.53;4.63;;;;;;;;;;5097831;28;20411;-68
2023/12/24 11:41:06;;;;;;;10.93;5.33;;;;;;;;;;5097309;28;20926;-69
2023/12/24 11:43:56;;;;;;;3.73;2.23;;;;;;;;;;5097746;28;20388;-68
2023/12/24 11:46:31;;;;;;;8.90;3.33;;;;;;;;;;5079347;28;20429;-67
2023/12/24 11:49:06;;;;;;;8.83;4.77;;;;;;;;;;5059212;28;20463;-69
2023/12/24 11:55:33;;;;;;;5.77;3.50;;;;;;;;;;5077227;28;20545;-69
2023/12/24 11:58:01;;;;;;;8.73;5.47;;;;;;;;;;5077635;28;20427;-72
2023/12/24 12:00:28;;;;;;;8.50;4.43;;;;;;;;;;5075639;28;20473;-74
2023/12/24 12:02:57;;;;;;;10.87;5.00;;;;;;;;;;5077318;28;20428;-74
2023/12/24 12:05:26;;;;;;;11.57;4.00;;;;;;;;;;5076990;28;20466;-74
2023/12/24 12:07:57;;;;;;;11.03;5.40;;;;;;;;;;5076822;28;20438;-70
2023/12/24 12:10:24;;;;;;;10.57;5.83;;;;;;;;;;5075975;28;20884;-69
2023/12/24 12:12:52;;;;;;;10.37;4.90;;;;;;;;;;5075051;28;20418;-70
2023/12/24 12:15:23;;;;;;;8.27;4.53;;;;;;;;;;5076445;28;20409;-70
2023/12/24 12:17:50;;;;;;;10.70;5.40;;;;;;;;;;5076677;28;20827;-74
2023/12/24 12:20:18;;;;;;;6.07;3.60;;;;;;;;;;5042838;28;20474;-75
2023/12/24 12:22:45;;;;;;;9.50;4.80;;;;;;;;;;5075742;28;20442;-69
2023/12/24 12:25:12;;;;;;;9.43;5.00;;;;;;;;;;5076181;28;20456;-69
2023/12/24 12:27:39;;;;;;;9.97;5.10;;;;;;;;;;5058213;28;20431;-70
2023/12/24 12:30:06;;;;;;;8.87;5.07;;;;;;;;;;5076036;28;20439;-71
2023/12/24 12:32:33;;;;;;;7.90;4.50;;;;;;;;;;5074663;28;20468;-69
2023/12/24 12:35:01;;;;;;;8.30;4.73;;;;;;;;;;5058437;28;20474;-68
2023/12/24 12:37:28;;;;;;;7.43;4.47;;;;;;;;;;5075833;28;20501;-67
2023/12/24 12:39:55;;;;;;;8.47;4.37;;;;;;;;;;5041776;28;20424;-66
2023/12/24 12:42:39;;;;;;;9.20;4.30;;;;;;;;;;5061023;28;20405;-69
2023/12/24 12:45:10;;;;;;;7.43;3.00;;;;;;;;;;5058907;28;20400;-70
2023/12/24 12:47:38;;;;;;;3.17;1.73;;;;;;;;;;5075322;28;20455;-69
2023/12/24 12:50:05;;;;;;;4.63;2.83;;;;;;;;;;5074673;28;20451;-70
2023/12/24 12:52:32;;;;;;;4.57;2.83;;;;;;;;;;5042447;28;20453;-70
2023/12/24 12:55:18;;;;;;;6.67;4.10;;;;;;;;;;5074387;28;20907;-69
2023/12/24 12:57:45;;;;;;;4.97;2.47;;;;;;;;;;5091523;28;20428;-70
2023/12/24 13:00:19;;;;;;;5.83;2.30;;;;;;;;;;5058267;28;20471;-69
2023/12/24 13:02:46;;;;;;;5.37;2.57;;;;;;;;;;5074437;28;20428;-70
2023/12/24 13:05:22;;;;;;;5.50;3.30;;;;;;;;;;5074510;28;20426;-69
2023/12/24 13:08:13;;;;;;;4.47;2.83;;;;;;;;;;5075433;28;20485;-70
2023/12/24 13:10:40;;;;;;;4.60;2.90;;;;;;;;;;5075385;28;20413;-70
2023/12/24 13:13:07;;;;;;;3.17;1.57;;;;;;;;;;5073666;28;20458;-70
2023/12/24 13:15:34;;;;;;;4.90;2.67;;;;;;;;;;5073869;28;20429;-69
2023/12/24 13:18:24;;;;;;;3.37;2.07;;;;;;;;;;5075060;28;20480;-69
2023/12/24 13:20:53;;;;;;;5.33;3.37;;;;;;;;;;5074889;28;20413;-70
2023/12/24 13:23:22;;;;;;;5.73;3.60;;;;;;;;;;5041359;28;20832;-69
2023/12/24 13:25:50;;;;;;;5.00;2.70;;;;;;;;;;5056629;28;20439;-71
2023/12/24 13:28:17;;;;;;;2.57;1.80;;;;;;;;;;5040855;28;20429;-72
2023/12/24 13:30:44;;;;;;;2.40;1.80;;;;;;;;;;5056884;28;20419;-72
2023/12/24 13:33:11;;;;;;;3.00;1.90;;;;;;;;;;5057117;28;20421;-71
2023/12/24 13:35:39;;;;;;;3.43;1.33;;;;;;;;;;5056737;28;20429;-70
2023/12/24 13:38:11;;;;;;;3.07;1.73;;;;;;;;;;5056830;28;20826;-69
2023/12/24 13:40:39;;;;;;;3.50;1.97;;;;;;;;;;5073316;28;20430;-69
2023/12/24 13:43:06;;;;;;;2.03;1.57;;;;;;;;;;5039875;28;20424;-70
2023/12/24 13:45:34;;;;;;;3.23;1.90;;;;;;;;;;5073371;28;20432;-69
2023/12/24 13:48:02;;;;;;;2.17;1.30;;;;;;;;;;5036205;28;20466;-69
2023/12/24 13:50:31;;;;;;;3.70;1.33;;;;;;;;;;5054680;28;20525;-69
2023/12/24 13:52:59;;;;;;;2.77;1.83;;;;;;;;;;5056730;28;20531;-70
2023/12/24 13:55:45;;;;;;;1.93;1.23;;;;;;;;;;5074793;28;20876;-70
2023/12/24 13:58:13;;;;;;;2.63;1.90;;;;;;;;;;5040538;28;20964;-69
2023/12/24 14:00:39;;;;;;;2.70;2.20;;;;;;;;;;5056543;28;20426;-70
2023/12/24 14:03:07;;;;;;;2.67;2.10;;;;;;;;;;5056335;28;20497;-69
2023/12/24 14:05:51;;;;;;;2.33;1.70;;;;;;;;;;5059424;28;20416;-69
2023/12/24 14:08:20;;;;;;;1.87;1.67;;;;;;;;;;5039959;28;20419;-69
2023/12/24 14:10:48;;;;;;;5.50;1.87;;;;;;;;;;5040278;28;20432;-70
2023/12/24 14:13:15;;;;;;;4.80;2.37;;;;;;;;;;5039698;28;20434;-69
2023/12/24 14:15:41;;;;;;;3.87;2.00;;;;;;;;;;5055993;28;20468;-69
2023/12/24 14:18:25;;;;;;;4.03;2.70;;;;;;;;;;5074239;28;20510;-69
2023/12/24 14:20:53;;;;;;;3.80;2.30;;;;;;;;;;5056190;28;20908;-70
2023/12/24 14:23:19;;;;;;;5.10;2.80;;;;;;;;;;5073713;28;20432;-69
2023/12/24 14:25:51;;;;;;;3.47;2.40;;;;;;;;;;5056022;28;20481;-69
2023/12/24 14:28:38;;;;;;;6.00;2.43;;;;;;;;;;5074275;28;20419;-70
2023/12/24 14:31:04;;;;;;;4.20;2.40;;;;;;;;;;5039440;28;20425;-70
2023/12/24 14:33:31;;;;;;;4.70;2.67;;;;;;;;;;5073887;28;20430;-70
2023/12/24 14:36:15;;;;;;;5.50;2.73;;;;;;;;;;5058630;28;20409;-70
2023/12/24 14:38:43;;;;;;;3.70;2.00;;;;;;;;;;5039540;28;20902;-70
2023/12/24 14:41:10;;;;;;;4.47;2.50;;;;;;;;;;5056986;28;20425;-70
2023/12/24 14:43:37;;;;;;;7.07;3.20;;;;;;;;;;5073721;28;20458;-69
2023/12/24 14:46:04;;;;;;;3.63;2.27;;;;;;;;;;5074375;28;20470;-70
2023/12/24 14:48:35;;;;;;;3.77;2.27;;;;;;;;;;5073475;28;20547;-69
2023/12/24 14:51:06;;;;;;;5.03;2.50;;;;;;;;;;5040355;28;20555;-69
2023/12/24 14:53:32;;;;;;;3.50;2.40;;;;;;;;;;5038923;28;20919;-69
2023/12/24 14:55:59;;;;;;;5.50;2.80;;;;;;;;;;5055510;28;20428;-69
2023/12/24 14:58:26;;;;;;;3.90;2.40;;;;;;;;;;5039258;28;20466;-69
2023/12/24 15:00:53;;;;;;;3.43;2.50;;;;;;;;;;5055497;28;20429;-71
2023/12/24 15:03:21;;;;;;;4.83;2.50;;;;;;;;;;5073122;28;20457;-69
2023/12/24 15:05:48;;;;;;;2.97;2.30;;;;;;;;;;5038827;28;20428;-69
2023/12/24 15:08:15;;;;;;;7.10;2.70;;;;;;;;;;5073413;28;20417;-69
2023/12/24 15:10:42;;;;;;;59.00;29.07;;;;;;;;;;5055927;28;20440;-70
2023/12/24 15:13:09;;;;;;;4.00;1.97;;;;;;;;;;5073334;28;20748;-69
2023/12/24 15:15:35;;;;;;;4.20;2.23;;;;;;;;;;5055022;28;20556;-69
2023/12/24 15:18:02;;;;;;;5.00;2.73;;;;;;;;;;5038749;28;20494;-69
2023/12/24 15:20:29;;;;;;;10.50;5.37;;;;;;;;;;5055474;28;20899;-69
2023/12/24 15:22:57;;;;;;;6.13;2.77;;;;;;;;;;5055255;28;20460;-70
2023/12/24 15:25:26;;;;;;;3.97;2.60;;;;;;;;;;5072882;28;20512;-69
2023/12/24 15:27:52;;;;;;;3.63;2.43;;;;;;;;;;5054939;28;20432;-69
2023/12/24 15:30:19;;;;;;;3.67;2.57;;;;;;;;;;5055202;28;20519;-69
2023/12/24 15:32:46;;;;;;;3.80;1.97;;;;;;;;;;5055506;28;20531;-69
2023/12/24 15:35:13;;;;;;;2.60;1.67;;;;;;;;;;5054955;28;20479;-70
2023/12/24 15:37:57;;;;;;;3.90;2.10;;;;;;;;;;5073370;28;20490;-69
2023/12/24 15:40:24;;;;;;;2.93;2.27;;;;;;;;;;5055229;28;20424;-69
2023/12/24 15:42:53;;;;;;;5.40;2.37;;;;;;;;;;5055286;28;20421;-69